Aviation Digital Data Service (ADDS)

Output produced by METARs form (1748 UTC 25 March 2019)
found at http://www.aviationweather.gov/metar/data/
 
METAR text: ROMY 251100Z 36008KT 320V030 9999 FEW013 SCT020 BKN090 20/19 Q1015
Conditions at: ROMY (MIYAKOJIMA ISLAN, JP) observed 1100 UTC 25 March 2019
Temperature: 20.0°C (68°F)
Dewpoint: 19.0°C (66°F) [RH = 94%]
Pressure (altimeter): 29.97 inches Hg (1015.0 mb)
Winds: from the N (360 degrees) at 9 MPH (8 knots; 4.1 m/s)
Visibility: 6 or more miles (10+ km)
Ceiling: 9000 feet AGL
Clouds: few clouds at 1300 feet AGL
scattered clouds at 2000 feet AGL
broken clouds at 9000 feet AGL
Weather: no significant weather observed at this time

METAR text: ROMY 251000Z 35006KT 9999 -RA FEW010 SCT014 BKN050 20/19 Q1015
Conditions at: ROMY (MIYAKOJIMA ISLAN, JP) observed 1000 UTC 25 March 2019
Temperature: 20.0°C (68°F)
Dewpoint: 19.0°C (66°F) [RH = 94%]
Pressure (altimeter): 29.97 inches Hg (1015.0 mb)
Winds: from the N (350 degrees) at 7 MPH (6 knots; 3.1 m/s)
Visibility: 6 or more miles (10+ km)
Ceiling: 5000 feet AGL
Clouds: few clouds at 1000 feet AGL
scattered clouds at 1400 feet AGL
broken clouds at 5000 feet AGL
Weather: -RA  (light rain)

METAR text: ROMY 250900Z 34008KT 9999 -RA FEW011 SCT025 BKN050 21/19 Q1014
Conditions at: ROMY (MIYAKOJIMA ISLAN, JP) observed 0900 UTC 25 March 2019
Temperature: 21.0°C (70°F)
Dewpoint: 19.0°C (66°F) [RH = 88%]
Pressure (altimeter): 29.94 inches Hg (1014.0 mb)
Winds: from the NNW (340 degrees) at 9 MPH (8 knots; 4.1 m/s)
Visibility: 6 or more miles (10+ km)
Ceiling: 5000 feet AGL
Clouds: few clouds at 1100 feet AGL
scattered clouds at 2500 feet AGL
broken clouds at 5000 feet AGL
Weather: -RA  (light rain)

METAR text: ROMY 250819Z 34008KT 320V020 6000 -SHRA FEW007 SCT015 BKN040 21/20 Q1015 RMK 1ST007 4CU015 7SC040 A2997
Conditions at: ROMY (MIYAKOJIMA ISLAN, JP) observed 0819 UTC 25 March 2019
Temperature: 21.0°C (70°F)
Dewpoint: 20.0°C (68°F) [RH = 94%]
Pressure (altimeter): 29.97 inches Hg (1015.0 mb)
Winds: from the NNW (340 degrees) at 9 MPH (8 knots; 4.1 m/s)
Visibility: 4 miles ( 6 km)
Ceiling: 4000 feet AGL
Clouds: few clouds at 700 feet AGL
scattered clouds at 1500 feet AGL
broken clouds at 4000 feet AGL
Weather: -SHRA  (light rain showers)

METAR text: ROMY 250800Z 34012KT 3000 SHRA BR FEW006 BKN010 FEW020TCU BKN040 21/20 Q1014
Conditions at: ROMY (MIYAKOJIMA ISLAN, JP) observed 0800 UTC 25 March 2019
Temperature: 21.0°C (70°F)
Dewpoint: 20.0°C (68°F) [RH = 94%]
Pressure (altimeter): 29.94 inches Hg (1014.0 mb)
Winds: from the NNW (340 degrees) at 14 MPH (12 knots; 6.2 m/s)
Visibility: 1.86 miles (2.99 km)
Ceiling: 1000 feet AGL
Clouds: few clouds at 600 feet AGL
broken clouds at 1000 feet AGL
few clouds at 2000 feet AGL
broken clouds at 4000 feet AGL
Weather: SHRA BR  (rain showers, mist)

METAR text: ROMY 250724Z 21006KT 2500 R22/1200VP1800D +SHRA BR FEW007 BKN010 FEW020TCU BKN040 21/20 Q1013 RMK 1ST007 6CU010 1TCU020 7SC040 A2993 TCU 5KM E-S MOV NE
Conditions at: ROMY (MIYAKOJIMA ISLAN, JP) observed 0724 UTC 25 March 2019
Temperature: 21.0°C (70°F)
Dewpoint: 20.0°C (68°F) [RH = 94%]
Pressure (altimeter): 29.91 inches Hg (1013.0 mb)
Winds: from the SSW (210 degrees) at 7 MPH (6 knots; 3.1 m/s)
Visibility: 1.55 miles (2.49 km)
Ceiling: 1000 feet AGL
Clouds: few clouds at 700 feet AGL
broken clouds at 1000 feet AGL
few clouds at 2000 feet AGL
broken clouds at 4000 feet AGL
Weather: +SHRA BR  (heavy rain showers, mist)

METAR text: ROMY 250700Z 30006KT 270V340 4500 SHRA BR FEW004 BKN010 FEW020TCU BKN030 21/20 Q1013
Conditions at: ROMY (MIYAKOJIMA ISLAN, JP) observed 0700 UTC 25 March 2019
Temperature: 21.0°C (70°F)
Dewpoint: 20.0°C (68°F) [RH = 94%]
Pressure (altimeter): 29.91 inches Hg (1013.0 mb)
Winds: from the WNW (300 degrees) at 7 MPH (6 knots; 3.1 m/s)
Visibility: 2.80 miles (4.51 km)
Ceiling: 1000 feet AGL
Clouds: few clouds at 400 feet AGL
broken clouds at 1000 feet AGL
few clouds at 2000 feet AGL
broken clouds at 3000 feet AGL
Weather: SHRA BR  (rain showers, mist)

METAR text: ROMY 250633Z 25009KT 1500 R22/0350V0800U +SHRA SCT004 BKN009 SCT020TCU BKN025 21/20 Q1014 RMK 3ST004 5CU009 3TCU020 7CU025 A2995 WS OBS AT 0618Z ON RWY22 1000FT B763 TCU OHD MOV NE P/RR RI++
Conditions at: ROMY (MIYAKOJIMA ISLAN, JP) observed 0633 UTC 25 March 2019
Temperature: 21.0°C (70°F)
Dewpoint: 20.0°C (68°F) [RH = 94%]
Pressure (altimeter): 29.94 inches Hg (1014.0 mb)
Winds: from the WSW (250 degrees) at 10 MPH (9 knots; 4.6 m/s)
Visibility: 0.93 miles (1.50 km)
Ceiling: 900 feet AGL
Clouds: scattered clouds at 400 feet AGL
broken clouds at 900 feet AGL
scattered clouds at 2000 feet AGL
broken clouds at 2500 feet AGL
Weather: +SHRA  (heavy rain showers)

METAR text: ROMY 250620Z 32009KT 290V350 1000 R22/1300VP1800N +SHRA FEW005 BKN010 SCT020TCU BKN030 22/20 Q1012 RMK 2ST005 5CU010 3TCU020 7CU030 A2991 TCU OHD MOV NE RI++
Conditions at: ROMY (MIYAKOJIMA ISLAN, JP) observed 0620 UTC 25 March 2019
Temperature: 22.0°C (72°F)
Dewpoint: 20.0°C (68°F) [RH = 88%]
Pressure (altimeter): 29.88 inches Hg (1012.0 mb)
Winds: from the NW (320 degrees) at 10 MPH (9 knots; 4.6 m/s)
Visibility: 0.62 miles (1.00 km)
Ceiling: 1000 feet AGL
Clouds: few clouds at 500 feet AGL
broken clouds at 1000 feet AGL
scattered clouds at 2000 feet AGL
broken clouds at 3000 feet AGL
Weather: +SHRA  (heavy rain showers)

METAR text: ROMY 250605Z 20014KT 3000 SHRA BR SCT010 BKN015 BKN031 23/22 Q1012 RMK 3CU010 5CU015 6CU031 A2991
Conditions at: ROMY (MIYAKOJIMA ISLAN, JP) observed 0605 UTC 25 March 2019
Temperature: 23.0°C (73°F)
Dewpoint: 22.0°C (72°F) [RH = 94%]
Pressure (altimeter): 29.88 inches Hg (1012.0 mb)
Winds: from the SSW (200 degrees) at 16 MPH (14 knots; 7.2 m/s)
Visibility: 1.86 miles (2.99 km)
Ceiling: 1500 feet AGL
Clouds: scattered clouds at 1000 feet AGL
broken clouds at 1500 feet AGL
broken clouds at 3100 feet AGL
Weather: SHRA BR  (rain showers, mist)

METAR text: ROMY 250600Z 20015KT 4500 -SHRA BR FEW013 SCT017 BKN031 23/22 Q1012
Conditions at: ROMY (MIYAKOJIMA ISLAN, JP) observed 0600 UTC 25 March 2019
Temperature: 23.0°C (73°F)
Dewpoint: 22.0°C (72°F) [RH = 94%]
Pressure (altimeter): 29.88 inches Hg (1012.0 mb)
Winds: from the SSW (200 degrees) at 17 MPH (15 knots; 7.7 m/s)
Visibility: 2.80 miles (4.51 km)
Ceiling: 3100 feet AGL
Clouds: few clouds at 1300 feet AGL
scattered clouds at 1700 feet AGL
broken clouds at 3100 feet AGL
Weather: -SHRA BR  (light rain showers, mist)

METAR text: ROMY 250500Z 19020KT 9999 VCSH SCT012 BKN021 BKN050 25/21 Q1012
Conditions at: ROMY (MIYAKOJIMA ISLAN, JP) observed 0500 UTC 25 March 2019
Temperature: 25.0°C (77°F)
Dewpoint: 21.0°C (70°F) [RH = 79%]
Pressure (altimeter): 29.88 inches Hg (1012.0 mb)
Winds: from the S (190 degrees) at 23 MPH (20 knots; 10.3 m/s)
Visibility: 6 or more miles (10+ km)
Ceiling: 2100 feet AGL
Clouds: scattered clouds at 1200 feet AGL
broken clouds at 2100 feet AGL
broken clouds at 5000 feet AGL
Weather: VCSH  (showers in vicinity)

METAR text: ROMY 250400Z 18020KT 9999 -SHRA SCT014 BKN018 BKN025 24/21 Q1013
Conditions at: ROMY (MIYAKOJIMA ISLAN, JP) observed 0400 UTC 25 March 2019
Temperature: 24.0°C (75°F)
Dewpoint: 21.0°C (70°F) [RH = 83%]
Pressure (altimeter): 29.91 inches Hg (1013.0 mb)
Winds: from the S (180 degrees) at 23 MPH (20 knots; 10.3 m/s)
Visibility: 6 or more miles (10+ km)
Ceiling: 1800 feet AGL
Clouds: scattered clouds at 1400 feet AGL
broken clouds at 1800 feet AGL
broken clouds at 2500 feet AGL
Weather: -SHRA  (light rain showers)

METAR text: ROMY 250300Z 16017KT 9999 BKN019 BKN025 24/20 Q1014
Conditions at: ROMY (MIYAKOJIMA ISLAN, JP) observed 0300 UTC 25 March 2019
Temperature: 24.0°C (75°F)
Dewpoint: 20.0°C (68°F) [RH = 78%]
Pressure (altimeter): 29.94 inches Hg (1014.0 mb)
Winds: from the SSE (160 degrees) at 20 MPH (17 knots; 8.7 m/s)
Visibility: 6 or more miles (10+ km)
Ceiling: 1900 feet AGL
Clouds: broken clouds at 1900 feet AGL
broken clouds at 2500 feet AGL
Weather: no significant weather observed at this time

METAR text: ROMY 250200Z 16015KT 9999 VCSH SCT018 BKN025 24/20 Q1015
Conditions at: ROMY (MIYAKOJIMA ISLAN, JP) observed 0200 UTC 25 March 2019
Temperature: 24.0°C (75°F)
Dewpoint: 20.0°C (68°F) [RH = 78%]
Pressure (altimeter): 29.97 inches Hg (1015.0 mb)
Winds: from the SSE (160 degrees) at 17 MPH (15 knots; 7.7 m/s)
Visibility: 6 or more miles (10+ km)
Ceiling: 2500 feet AGL
Clouds: scattered clouds at 1800 feet AGL
broken clouds at 2500 feet AGL
Weather: VCSH  (showers in vicinity)

METAR text: ROMY 250100Z 15014KT 9999 FEW015 BKN022 23/20 Q1015
Conditions at: ROMY (MIYAKOJIMA ISLAN, JP) observed 0100 UTC 25 March 2019
Temperature: 23.0°C (73°F)
Dewpoint: 20.0°C (68°F) [RH = 83%]
Pressure (altimeter): 29.97 inches Hg (1015.0 mb)
Winds: from the SSE (150 degrees) at 16 MPH (14 knots; 7.2 m/s)
Visibility: 6 or more miles (10+ km)
Ceiling: 2200 feet AGL
Clouds: few clouds at 1500 feet AGL
broken clouds at 2200 feet AGL
Weather: no significant weather observed at this time

METAR text: ROMY 250000Z 15014KT 9999 VCSH FEW019 BKN060 22/19 Q1015
Conditions at: ROMY (MIYAKOJIMA ISLAN, JP) observed 0000 UTC 25 March 2019
Temperature: 22.0°C (72°F)
Dewpoint: 19.0°C (66°F) [RH = 83%]
Pressure (altimeter): 29.97 inches Hg (1015.0 mb)
Winds: from the SSE (150 degrees) at 16 MPH (14 knots; 7.2 m/s)
Visibility: 6 or more miles (10+ km)
Ceiling: 6000 feet AGL
Clouds: few clouds at 1900 feet AGL
broken clouds at 6000 feet AGL
Weather: VCSH  (showers in vicinity)

METAR text: ROMY 242300Z 14010KT 9999 VCSH FEW028 BKN038 BKN049 21/18 Q1016
Conditions at: ROMY (MIYAKOJIMA ISLAN, JP) observed 2300 UTC 24 March 2019
Temperature: 21.0°C (70°F)
Dewpoint: 18.0°C (64°F) [RH = 83%]
Pressure (altimeter): 30.00 inches Hg (1016.0 mb)
Winds: from the SE (140 degrees) at 12 MPH (10 knots; 5.1 m/s)
Visibility: 6 or more miles (10+ km)
Ceiling: 3800 feet AGL
Clouds: few clouds at 2800 feet AGL
broken clouds at 3800 feet AGL
broken clouds at 4900 feet AGL
Weather: VCSH  (showers in vicinity)

METAR text: ROMY 242200Z 13010KT 9999 -SHRA BKN018 BKN030 20/18 Q1015
Conditions at: ROMY (MIYAKOJIMA ISLAN, JP) observed 2200 UTC 24 March 2019
Temperature: 20.0°C (68°F)
Dewpoint: 18.0°C (64°F) [RH = 88%]
Pressure (altimeter): 29.97 inches Hg (1015.0 mb)
Winds: from the SE (130 degrees) at 12 MPH (10 knots; 5.1 m/s)
Visibility: 6 or more miles (10+ km)
Ceiling: 1800 feet AGL
Clouds: broken clouds at 1800 feet AGL
broken clouds at 3000 feet AGL
Weather: -SHRA  (light rain showers)

METAR text: ROMY 242130Z 12009KT 9999 VCSH SCT019 BKN029 21/18 Q1015
Conditions at: ROMY (MIYAKOJIMA ISLAN, JP) observed 2130 UTC 24 March 2019
Temperature: 21.0°C (70°F)
Dewpoint: 18.0°C (64°F) [RH = 83%]
Pressure (altimeter): 29.97 inches Hg (1015.0 mb)
Winds: from the ESE (120 degrees) at 10 MPH (9 knots; 4.6 m/s)
Visibility: 6 or more miles (10+ km)
Ceiling: 2900 feet AGL
Clouds: scattered clouds at 1900 feet AGL
broken clouds at 2900 feet AGL
Weather: VCSH  (showers in vicinity)

METAR text: ROMY 241100Z 09011KT 9999 FEW029 BKN049 19/14 Q1018
Conditions at: ROMY (MIYAKOJIMA ISLAN, JP) observed 1100 UTC 24 March 2019
Temperature: 19.0°C (66°F)
Dewpoint: 14.0°C (57°F) [RH = 73%]
Pressure (altimeter): 30.06 inches Hg (1018.0 mb)
Winds: from the E (90 degrees) at 13 MPH (11 knots; 5.7 m/s)
Visibility: 6 or more miles (10+ km)
Ceiling: 4900 feet AGL
Clouds: few clouds at 2900 feet AGL
broken clouds at 4900 feet AGL
Weather: no significant weather observed at this time

METAR text: ROMY 241000Z 09009KT 9999 FEW032 BKN049 19/13 Q1018
Conditions at: ROMY (MIYAKOJIMA ISLAN, JP) observed 1000 UTC 24 March 2019
Temperature: 19.0°C (66°F)
Dewpoint: 13.0°C (55°F) [RH = 68%]
Pressure (altimeter): 30.06 inches Hg (1018.0 mb)
Winds: from the E (90 degrees) at 10 MPH (9 knots; 4.6 m/s)
Visibility: 6 or more miles (10+ km)
Ceiling: 4900 feet AGL
Clouds: few clouds at 3200 feet AGL
broken clouds at 4900 feet AGL
Weather: no significant weather observed at this time

METAR text: ROMY 240900Z 07009KT 9999 FEW034 BKN047 19/13 Q1018
Conditions at: ROMY (MIYAKOJIMA ISLAN, JP) observed 0900 UTC 24 March 2019
Temperature: 19.0°C (66°F)
Dewpoint: 13.0°C (55°F) [RH = 68%]
Pressure (altimeter): 30.06 inches Hg (1018.0 mb)
Winds: from the ENE (70 degrees) at 10 MPH (9 knots; 4.6 m/s)
Visibility: 6 or more miles (10+ km)
Ceiling: 4700 feet AGL
Clouds: few clouds at 3400 feet AGL
broken clouds at 4700 feet AGL
Weather: no significant weather observed at this time

METAR text: ROMY 240800Z 08007KT 9999 FEW035 BKN045 19/13 Q1018
Conditions at: ROMY (MIYAKOJIMA ISLAN, JP) observed 0800 UTC 24 March 2019
Temperature: 19.0°C (66°F)
Dewpoint: 13.0°C (55°F) [RH = 68%]
Pressure (altimeter): 30.06 inches Hg (1018.0 mb)
Winds: from the E (80 degrees) at 8 MPH (7 knots; 3.6 m/s)
Visibility: 6 or more miles (10+ km)
Ceiling: 4500 feet AGL
Clouds: few clouds at 3500 feet AGL
broken clouds at 4500 feet AGL
Weather: no significant weather observed at this time

METAR text: ROMY 240700Z 06008KT 9999 FEW035 BKN048 19/12 Q1018
Conditions at: ROMY (MIYAKOJIMA ISLAN, JP) observed 0700 UTC 24 March 2019
Temperature: 19.0°C (66°F)
Dewpoint: 12.0°C (54°F) [RH = 64%]
Pressure (altimeter): 30.06 inches Hg (1018.0 mb)
Winds: from the ENE (60 degrees) at 9 MPH (8 knots; 4.1 m/s)
Visibility: 6 or more miles (10+ km)
Ceiling: 4800 feet AGL
Clouds: few clouds at 3500 feet AGL
broken clouds at 4800 feet AGL
Weather: no significant weather observed at this time

METAR text: ROMY 240600Z 08009KT 9999 SCT035 BKN042 19/12 Q1018
Conditions at: ROMY (MIYAKOJIMA ISLAN, JP) observed 0600 UTC 24 March 2019
Temperature: 19.0°C (66°F)
Dewpoint: 12.0°C (54°F) [RH = 64%]
Pressure (altimeter): 30.06 inches Hg (1018.0 mb)
Winds: from the E (80 degrees) at 10 MPH (9 knots; 4.6 m/s)
Visibility: 6 or more miles (10+ km)
Ceiling: 4200 feet AGL
Clouds: scattered clouds at 3500 feet AGL
broken clouds at 4200 feet AGL
Weather: no significant weather observed at this time